Bowen, Argentina
Current Conditions -  °F | °C
As of 10:00 AM on Saturday 25 Oct 2014 (Local Time) from SAME Reporting Station
Clear Clear  
Wind Chill: 79°   Ceiling: Unl
Heat Index: 80°   Visibility: 6mi
Dew Point: 63°   Wind: 5mph
Humidity: 57%   Direction: 90°E
Pressure: 29.91"   Gusts: NA
Location:  35°S, 67.52°W
Report Text: SAME 251300Z 09004KT CAVOK 26/17 Q1013
Loading
Personal Weather Stations






























Interactive Weather Map
Tropical Storm Tracking
New forecast layout! Learn more

10-Day Weather Forecast

Advertisements
Track Severe Weather on mobile